LEVX Airport Information

Runway Information
Runway 02 Length 7874 ft width 148 ft
Elevation 855 ft Threshold 0 ft Heading 11
Runway 20 Length 7874 ft Width 148 ft
Elevation 829 ft Threshold 0 ft Heading 191
Airport Frequencies
Type APP Name SANTIAGO A Frequency 120.2 MHZ
Type GND Name GND Frequency 121.7 MHZ
Type TWR Name TWR Frequency 118.45 MHZ
Airport Navaids
Type VOR-DME Name Vigo Frequency 113600 KHZ
Type NDB Name Vigo Frequency 345 KHZ
Type NDB Name Vigo Frequency 433 KHZ
Airport Weather Information & NOTAM
ADDS - METARS form results

(2317 UTC 29 October 2020)
Data provider http://aviationweather.gov/metar/data/
 
METAR text: LEVX 292300Z 00000KT 9999 BKN034 12/11 Q1025 NOSIG
Conditions at: LEVX (VIGO/PEINADOR , ES) observed 2300 UTC 29 October 2020
Temperature: 12.0°C (54°F)
Dewpoint: 11.0°C (52°F) [RH = 94%]
Pressure (altimeter): 30.27 inches Hg (1025.0 mb)
Winds: calm
Visibility: 6 or more miles (10+ km)
Ceiling: 3400 feet AGL
Clouds: broken clouds at 3400 feet AGL
Weather: no significant weather observed at this time

METAR text: LEVX 292230Z 00000KT 9999 BKN034 12/10 Q1025 NOSIG
Conditions at: LEVX (VIGO/PEINADOR , ES) observed 2230 UTC 29 October 2020
Temperature: 12.0°C (54°F)
Dewpoint: 10.0°C (50°F) [RH = 88%]
Pressure (altimeter): 30.27 inches Hg (1025.0 mb)
Winds: calm
Visibility: 6 or more miles (10+ km)
Ceiling: 3400 feet AGL
Clouds: broken clouds at 3400 feet AGL
Weather: no significant weather observed at this time

Forecast for: LEVX (VIGO/PEINADOR , ES)
Text: TAF LEVX 291700Z 2918/3018 20007KT 9999 SCT010 TX20/3014Z TN08/3006Z
Forecast period: 1800 UTC 29 October 2020 to 1800 UTC 30 October 2020
Forecast type: FROM: standard forecast or significant change
Winds: from the SSW (200 degrees) at 8 MPH (7 knots; 3.6 m/s)
Visibility: 6 or more miles (10+ km)
Ceiling: at least 12,000 feet AGL
Clouds: scattered clouds at 1000 feet AGL
Weather: no significant weather forecast for this period
Text: TEMPO 3000/3009 1500 BCFG BKN005
Forecast period: 0000 to 0900 UTC 30 October 2020
Forecast type: TEMPORARY: The following changes expected for less than half the time period
Visibility: 0.93 miles (1.50 km)
Ceiling: 500 feet AGL
Clouds: broken clouds at 500 feet AGL
Weather: BCFG  (patches of fog)
Text: TEMPO 3000/3009 0350 FG VV001
Forecast period: 0000 to 0900 UTC 30 October 2020
Forecast type: TEMPORARY: The following changes expected for less than half the time period
Visibility: 0.22 miles (0.35 km)
Ceiling: indefinite ceiling with vertical visibility of 100 feet AGL
Clouds: obscured sky
Weather: FG  (fog)